createdAt,value
2019-05-07T00:01:23.272Z,81.40
2019-05-07T00:03:53.036Z,81.45
2019-05-07T00:06:23.205Z,81.57
2019-05-07T00:08:52.975Z,81.63
2019-05-07T00:11:22.826Z,81.68
2019-05-07T00:13:53.699Z,81.68
2019-05-07T00:16:23.614Z,81.66
2019-05-07T00:18:54.308Z,81.79
2019-05-07T00:21:24.218Z,81.92
2019-05-07T00:23:54.488Z,81.85
2019-05-07T00:26:24.174Z,81.84
2019-05-07T00:28:54.009Z,81.73
2019-05-07T00:31:23.981Z,81.68
2019-05-07T00:33:53.663Z,81.62
2019-05-07T00:36:48.186Z,81.52
2019-05-07T00:39:39.748Z,81.46
2019-05-07T00:42:23.783Z,81.28
2019-05-07T00:45:13.042Z,81.17
2019-05-07T00:47:32.992Z,81.05
2019-05-07T00:50:07.557Z,80.95
2019-05-07T00:52:37.234Z,80.95
2019-05-07T00:55:07.045Z,80.91
2019-05-07T00:57:36.737Z,80.87
2019-05-07T01:00:07.541Z,80.76
2019-05-07T01:02:37.263Z,80.86
2019-05-07T01:05:07.052Z,80.76
2019-05-07T01:07:36.731Z,80.79
2019-05-07T01:10:07.202Z,80.59
2019-05-07T01:12:36.884Z,80.49
2019-05-07T01:15:07.281Z,80.44
2019-05-07T01:17:36.974Z,80.57
2019-05-07T01:20:07.510Z,80.43
2019-05-07T01:22:36.653Z,80.20
2019-05-07T01:25:05.343Z,80.23
2019-05-07T01:27:33.847Z,80.22
2019-05-07T01:30:02.722Z,80.11
2019-05-07T01:32:39.416Z,80.17
2019-05-07T01:35:17.141Z,80.29
2019-05-07T01:37:46.858Z,80.46
2019-05-07T01:40:16.534Z,80.23
2019-05-07T01:42:46.537Z,80.20
2019-05-07T01:45:16.883Z,80.05
2019-05-07T01:47:46.641Z,79.96
2019-05-07T01:50:16.506Z,80.03
2019-05-07T01:52:47.409Z,80.32
2019-05-07T01:55:17.099Z,80.78
2019-05-07T01:57:46.815Z,81.08
2019-05-07T02:00:16.717Z,80.93
2019-05-07T02:02:52.071Z,80.80
2019-05-07T02:05:32.655Z,80.88
2019-05-07T02:08:04.853Z,80.72
2019-05-07T02:10:42.863Z,80.44
2019-05-07T02:13:14.060Z,80.25
2019-05-07T02:15:57.394Z,80.17
2019-05-07T02:18:15.133Z,80.02
2019-05-07T02:20:45.006Z,80.33
2019-05-07T02:23:14.709Z,80.54
2019-05-07T02:25:44.745Z,80.45
2019-05-07T02:28:14.662Z,80.42
2019-05-07T02:30:44.794Z,80.23
2019-05-07T02:33:14.627Z,80.13
2019-05-07T02:35:44.304Z,79.98
2019-05-07T02:38:33.646Z,79.81
2019-05-07T02:41:10.085Z,79.85
2019-05-07T02:43:42.859Z,79.88
2019-05-07T02:46:30.548Z,79.87
2019-05-07T02:49:14.842Z,79.74
2019-05-07T02:51:54.430Z,79.85
2019-05-07T02:54:43.808Z,79.87
2019-05-07T02:57:17.069Z,79.87
2019-05-07T02:59:45.154Z,79.85
2019-05-07T03:02:14.863Z,79.86
2019-05-07T03:04:44.720Z,79.92
2019-05-07T03:07:14.392Z,80.09
2019-05-07T03:09:44.621Z,80.23
2019-05-07T03:12:14.697Z,80.22
2019-05-07T03:14:44.801Z,80.49
2019-05-07T03:17:15.017Z,80.59
2019-05-07T03:19:46.538Z,80.62
2019-05-07T03:22:16.551Z,80.77
2019-05-07T03:24:54.664Z,80.92
2019-05-07T03:27:24.325Z,81.14
2019-05-07T03:30:29.692Z,81.25
2019-05-07T03:33:07.303Z,81.37
2019-05-07T03:35:46.481Z,81.56
2019-05-07T03:38:15.432Z,81.66
2019-05-07T03:40:45.129Z,81.75
2019-05-07T03:43:14.886Z,81.86
2019-05-07T03:46:15.792Z,81.89
2019-05-07T03:48:47.039Z,81.66
2019-05-07T03:51:16.935Z,81.81
2019-05-07T03:53:46.622Z,81.79
2019-05-07T03:56:16.309Z,81.66
2019-05-07T03:58:45.991Z,81.70
2019-05-07T04:01:15.683Z,81.87
2019-05-07T04:03:45.368Z,82.07
2019-05-07T04:06:15.122Z,82.17
2019-05-07T04:08:44.806Z,82.16
2019-05-07T04:11:15.091Z,82.24
2019-05-07T04:13:44.808Z,82.14
2019-05-07T04:16:14.562Z,82.11
2019-05-07T04:18:44.319Z,82.21
2019-05-07T04:21:14.477Z,82.17
2019-05-07T04:23:44.607Z,82.22
2019-05-07T04:26:23.468Z,82.38
2019-05-07T04:29:05.917Z,82.28
2019-05-07T04:31:43.696Z,82.23
2019-05-07T04:34:17.763Z,82.11
2019-05-07T04:36:49.222Z,82.30
2019-05-07T04:39:22.933Z,82.46
2019-05-07T04:41:53.075Z,82.75
2019-05-07T04:44:23.646Z,82.95
2019-05-07T04:46:53.913Z,82.95
2019-05-07T04:49:24.224Z,82.87
2019-05-07T04:52:03.673Z,82.88
2019-05-07T04:54:32.937Z,82.60
2019-05-07T04:57:05.399Z,82.42
2019-05-07T04:59:36.055Z,82.41
2019-05-07T05:02:13.660Z,82.44
2019-05-07T05:04:44.058Z,82.56
2019-05-07T05:07:13.409Z,82.56
2019-05-07T05:09:43.313Z,82.42
2019-05-07T05:12:13.274Z,82.48
2019-05-07T05:14:44.053Z,82.44
2019-05-07T05:17:14.066Z,82.55
2019-05-07T05:19:44.103Z,82.93
2019-05-07T05:22:31.837Z,83.14
2019-05-07T05:25:12.125Z,83.35
2019-05-07T05:27:42.997Z,83.23
2019-05-07T05:30:19.157Z,82.99
2019-05-07T05:32:49.032Z,82.81
2019-05-07T05:35:18.794Z,82.66
2019-05-07T05:37:48.478Z,82.55
2019-05-07T05:40:19.418Z,82.39
2019-05-07T05:42:55.435Z,82.19
2019-05-07T05:45:34.281Z,81.09
2019-05-07T05:48:08.395Z,81.31
2019-05-07T05:50:50.037Z,81.49
2019-05-07T05:53:29.043Z,81.71
2019-05-07T05:56:02.376Z,81.60
2019-05-07T05:58:43.036Z,81.49
2019-05-07T06:01:28.163Z,81.36
2019-05-07T06:04:16.479Z,80.91
2019-05-07T06:07:10.389Z,80.37
2019-05-07T06:09:43.560Z,80.21
2019-05-07T06:12:35.108Z,80.05
2019-05-07T06:15:17.169Z,80.12
2019-05-07T06:18:20.485Z,80.10
2019-05-07T06:20:57.147Z,79.88
2019-05-07T06:23:42.094Z,79.74
2019-05-07T06:26:12.694Z,79.56
2019-05-07T06:28:42.659Z,79.81
2019-05-07T06:31:12.772Z,79.72
2019-05-07T06:33:43.100Z,79.35
2019-05-07T06:36:12.835Z,78.42
2019-05-07T06:38:48.468Z,77.99
2019-05-07T06:41:43.148Z,78.30
2019-05-07T06:44:19.500Z,78.26
2019-05-07T06:46:49.330Z,77.83
2019-05-07T06:49:22.157Z,77.23
2019-05-07T06:51:52.809Z,76.70
2019-05-07T06:54:22.834Z,76.47
2019-05-07T06:56:52.951Z,76.00
2019-05-07T06:59:43.535Z,75.67
2019-05-07T07:02:35.418Z,74.33
2019-05-07T07:05:42.571Z,73.08
2019-05-07T07:08:20.227Z,71.47
2019-05-07T07:11:15.752Z,70.76
2019-05-07T07:13:45.491Z,69.51
2019-05-07T07:16:15.594Z,69.08
2019-05-07T07:18:51.956Z,67.65
2019-05-07T07:21:16.694Z,67.23
2019-05-07T07:23:46.416Z,66.36
2019-05-07T07:26:16.180Z,66.51
2019-05-07T07:28:45.868Z,65.00
2019-05-07T07:31:34.957Z,64.32
2019-05-07T07:34:04.994Z,63.62
2019-05-07T07:36:42.340Z,62.99
2019-05-07T07:39:12.702Z,62.19
2019-05-07T07:41:49.727Z,62.82
2019-05-07T07:44:19.403Z,62.41
2019-05-07T07:46:49.090Z,61.77
2019-05-07T07:49:18.962Z,60.94
2019-05-07T07:51:48.720Z,59.20
2019-05-07T07:54:18.754Z,58.23
2019-05-07T07:56:57.726Z,57.80
2019-05-07T07:59:49.571Z,56.47
2019-05-07T08:02:38.505Z,56.49
2019-05-07T08:05:08.489Z,56.23
2019-05-07T08:07:38.299Z,54.36
2019-05-07T08:10:08.551Z,53.44
2019-05-07T08:12:37.193Z,53.42
2019-05-07T08:15:17.385Z,50.98
2019-05-07T08:17:41.775Z,52.21
2019-05-07T08:20:12.816Z,52.43
2019-05-07T08:22:42.893Z,53.39
2019-05-07T08:25:13.015Z,54.11
2019-05-07T08:27:42.766Z,52.27
2019-05-07T08:30:15.835Z,52.54
2019-05-07T08:32:59.165Z,51.54
2019-05-07T08:35:52.143Z,51.25
2019-05-07T08:38:21.982Z,51.07
2019-05-07T08:40:52.132Z,52.11
2019-05-07T08:43:21.991Z,52.36
2019-05-07T08:46:13.700Z,50.55
2019-05-07T08:48:46.641Z,51.49
2019-05-07T08:51:16.405Z,52.22
2019-05-07T08:53:47.720Z,53.71
2019-05-07T08:56:17.654Z,54.01
2019-05-07T08:58:47.701Z,54.00
2019-05-07T09:01:17.380Z,54.74
2019-05-07T09:03:47.053Z,53.88
2019-05-07T09:06:18.384Z,52.37
2019-05-07T09:08:48.126Z,53.19
2019-05-07T09:11:17.818Z,53.11
2019-05-07T09:13:47.487Z,53.11
2019-05-07T09:16:15.785Z,53.32
2019-05-07T09:18:44.079Z,53.29
2019-05-07T09:21:12.764Z,53.49
2019-05-07T09:23:42.358Z,53.65
2019-05-07T09:26:13.031Z,53.27
2019-05-07T09:28:57.637Z,52.68
2019-05-07T09:31:53.984Z,52.30
2019-05-07T09:34:23.394Z,52.24
2019-05-07T09:36:53.591Z,52.51
2019-05-07T09:39:22.167Z,51.89
2019-05-07T09:41:52.505Z,52.71
2019-05-07T09:44:22.183Z,53.02
2019-05-07T09:46:52.043Z,53.35
2019-05-07T09:49:22.143Z,53.67
2019-05-07T09:51:51.963Z,53.52
2019-05-07T09:54:20.317Z,53.91
2019-05-07T09:56:48.792Z,54.27
2019-05-07T09:59:17.082Z,54.57
2019-05-07T10:01:45.392Z,55.05
2019-05-07T10:04:13.688Z,55.15
2019-05-07T10:06:42.490Z,54.52
2019-05-07T10:09:12.033Z,53.06
2019-05-07T10:11:52.344Z,52.97
2019-05-07T10:14:22.295Z,51.48
2019-05-07T10:16:56.544Z,50.26
2019-05-07T10:19:24.832Z,50.06
2019-05-07T10:21:53.140Z,50.63
2019-05-07T10:24:22.264Z,51.14
2019-05-07T10:26:50.618Z,51.41
2019-05-07T10:29:18.910Z,50.10
2019-05-07T10:31:47.213Z,49.11
2019-05-07T10:34:15.522Z,49.77
2019-05-07T10:36:43.822Z,49.53
2019-05-07T10:39:12.893Z,49.60
2019-05-07T10:41:42.517Z,47.87
2019-05-07T10:44:11.943Z,47.88
2019-05-07T10:47:01.860Z,47.11
2019-05-07T10:49:37.567Z,48.64
2019-05-07T10:52:07.374Z,48.00
2019-05-07T10:54:37.036Z,48.78
2019-05-07T10:57:07.775Z,49.71
2019-05-07T10:59:37.442Z,49.17
2019-05-07T11:02:16.127Z,49.53
2019-05-07T11:04:46.043Z,48.26
2019-05-07T11:07:15.908Z,48.46
2019-05-07T11:09:45.594Z,48.34
2019-05-07T11:12:15.266Z,48.09
2019-05-07T11:14:45.914Z,47.60
2019-05-07T11:17:33.031Z,47.77
2019-05-07T11:20:02.703Z,48.63
2019-05-07T11:22:32.879Z,48.56
2019-05-07T11:25:03.116Z,48.14
2019-05-07T11:27:33.193Z,48.57
2019-05-07T11:30:03.043Z,48.57
2019-05-07T11:32:33.856Z,48.11
2019-05-07T11:35:03.701Z,47.67
2019-05-07T11:37:33.627Z,47.45
2019-05-07T11:40:03.467Z,47.26
2019-05-07T11:42:51.962Z,45.87
2019-05-07T11:45:27.963Z,44.21
2019-05-07T11:47:57.638Z,45.39
2019-05-07T11:50:35.979Z,44.95
2019-05-07T11:53:09.859Z,44.51
2019-05-07T11:55:41.916Z,44.69
2019-05-07T11:58:12.845Z,45.72
2019-05-07T12:00:42.587Z,46.07
2019-05-07T12:03:11.484Z,45.61
2019-05-07T12:05:42.295Z,46.11
2019-05-07T12:08:13.066Z,46.55
2019-05-07T12:10:41.684Z,46.16
2019-05-07T12:13:12.255Z,46.85
2019-05-07T12:15:42.846Z,46.96
2019-05-07T12:18:12.031Z,46.48
2019-05-07T12:20:40.983Z,46.11
2019-05-07T12:23:12.001Z,45.50
2019-05-07T12:25:42.218Z,46.02
2019-05-07T12:28:13.324Z,45.70
2019-05-07T12:30:42.824Z,45.24
2019-05-07T12:33:12.371Z,45.08
2019-05-07T12:35:42.319Z,45.45
2019-05-07T12:38:12.656Z,44.65
2019-05-07T12:40:41.789Z,44.57
2019-05-07T12:43:10.590Z,44.89
2019-05-07T12:45:38.111Z,44.69
2019-05-07T12:48:05.664Z,43.47
2019-05-07T12:50:33.099Z,44.10
2019-05-07T12:53:02.237Z,43.75
2019-05-07T12:55:29.857Z,43.75
2019-05-07T12:57:57.292Z,43.86
2019-05-07T13:00:48.678Z,43.08
2019-05-07T13:03:23.407Z,42.83
2019-05-07T13:05:52.239Z,43.29
2019-05-07T13:08:23.048Z,41.31
2019-05-07T13:10:52.305Z,41.16
2019-05-07T13:13:22.622Z,40.32
2019-05-07T13:15:52.368Z,40.54
2019-05-07T13:18:22.632Z,40.14
2019-05-07T13:20:52.462Z,38.71
2019-05-07T13:23:23.181Z,39.16
2019-05-07T13:25:53.047Z,39.54
2019-05-07T13:28:22.881Z,40.43
2019-05-07T13:30:53.532Z,40.38
2019-05-07T13:33:23.581Z,42.14
2019-05-07T13:35:53.498Z,41.18
2019-05-07T13:38:57.438Z,41.18
2019-05-07T13:41:58.168Z,41.76
2019-05-07T13:44:40.286Z,42.20
2019-05-07T13:47:30.161Z,42.08
2019-05-07T13:50:02.450Z,42.22
2019-05-07T13:52:33.078Z,42.27
2019-05-07T13:55:03.310Z,41.92
2019-05-07T13:57:33.057Z,42.25
2019-05-07T14:00:05.038Z,42.39
2019-05-07T14:02:36.598Z,42.91
2019-05-07T14:05:07.496Z,42.92
2019-05-07T14:07:41.552Z,43.77
2019-05-07T14:10:12.662Z,43.59
2019-05-07T14:12:43.373Z,43.68
2019-05-07T14:15:14.017Z,44.23
2019-05-07T14:17:43.776Z,44.45
2019-05-07T14:20:13.814Z,44.79
2019-05-07T14:22:43.627Z,44.93
2019-05-07T14:25:13.452Z,45.41
2019-05-07T14:27:43.142Z,46.23
2019-05-07T14:30:13.154Z,46.50
2019-05-07T14:32:53.695Z,46.82
2019-05-07T14:35:52.070Z,47.55
2019-05-07T14:38:43.717Z,47.34
2019-05-07T14:41:13.462Z,48.05
2019-05-07T14:43:54.371Z,48.43
2019-05-07T14:46:24.217Z,47.79
2019-05-07T14:48:52.664Z,47.83
2019-05-07T14:51:22.078Z,47.69
2019-05-07T14:53:50.558Z,48.19
2019-05-07T14:56:18.855Z,47.60
2019-05-07T14:58:47.313Z,46.26
2019-05-07T15:01:15.613Z,45.69
2019-05-07T15:03:43.991Z,46.36
2019-05-07T15:06:12.669Z,46.28
2019-05-07T15:08:42.912Z,46.44
2019-05-07T15:11:11.393Z,46.87
2019-05-07T15:13:39.924Z,46.22
2019-05-07T15:16:08.242Z,46.34
2019-05-07T15:18:49.837Z,46.26
2019-05-07T15:21:18.411Z,46.56
2019-05-07T15:23:47.159Z,47.52
2019-05-07T15:26:14.664Z,48.79
2019-05-07T15:28:42.087Z,49.00
2019-05-07T15:31:12.087Z,49.31
2019-05-07T15:33:39.145Z,49.22
2019-05-07T15:36:06.799Z,48.36
2019-05-07T15:38:34.392Z,48.99
2019-05-07T15:41:02.715Z,48.17
2019-05-07T15:43:32.368Z,47.72
2019-05-07T15:46:01.843Z,46.25
2019-05-07T15:48:28.617Z,45.80
2019-05-07T15:50:56.047Z,45.32
2019-05-07T15:53:23.707Z,45.05
2019-05-07T15:55:52.288Z,44.70
2019-05-07T15:58:20.168Z,45.07
2019-05-07T16:00:47.600Z,44.81
2019-05-07T16:03:15.035Z,45.31
2019-05-07T16:05:45.585Z,45.55
2019-05-07T16:08:17.092Z,45.56
2019-05-07T16:10:47.016Z,43.83
2019-05-07T16:13:22.451Z,44.73
2019-05-07T16:15:52.734Z,45.50
2019-05-07T16:18:25.013Z,45.76
2019-05-07T16:20:55.572Z,45.67
2019-05-07T16:23:25.347Z,46.28
2019-05-07T16:25:53.782Z,45.62
2019-05-07T16:28:22.255Z,45.88
2019-05-07T16:30:52.151Z,46.37
2019-05-07T16:33:22.257Z,46.36
2019-05-07T16:35:52.267Z,46.39
2019-05-07T16:38:22.181Z,45.87
2019-05-07T16:40:52.347Z,45.81
2019-05-07T16:43:22.282Z,45.79
2019-05-07T16:45:51.772Z,45.36
2019-05-07T16:48:20.485Z,45.94
2019-05-07T16:50:48.876Z,45.89
2019-05-07T16:53:29.151Z,46.27
2019-05-07T16:55:48.269Z,46.38
2019-05-07T16:58:29.430Z,46.96
2019-05-07T17:01:01.601Z,47.21
2019-05-07T17:03:38.401Z,47.09
2019-05-07T17:06:06.698Z,46.72
2019-05-07T17:08:51.653Z,47.05
2019-05-07T17:11:20.108Z,47.40
2019-05-07T17:13:48.484Z,47.27
2019-05-07T17:16:17.062Z,47.49
2019-05-07T17:18:45.389Z,47.54
2019-05-07T17:21:13.719Z,48.06
2019-05-07T17:23:44.720Z,48.60
2019-05-07T17:26:12.199Z,48.91
2019-05-07T17:28:42.536Z,48.92
2019-05-07T17:31:12.389Z,49.26
2019-05-07T17:33:42.455Z,49.20
2019-05-07T17:36:12.095Z,49.27
2019-05-07T17:38:42.698Z,49.36
2019-05-07T17:41:18.176Z,49.72
2019-05-07T17:43:40.751Z,49.49
2019-05-07T17:46:09.121Z,49.50
2019-05-07T17:48:37.569Z,49.51
2019-05-07T17:51:24.905Z,49.53
2019-05-07T17:54:00.144Z,49.71
2019-05-07T17:56:28.115Z,49.86
2019-05-07T17:58:58.046Z,50.09
2019-05-07T18:01:36.451Z,50.46
2019-05-07T18:04:06.217Z,50.79
2019-05-07T18:06:36.043Z,50.89
2019-05-07T18:09:06.485Z,51.09
2019-05-07T18:11:38.473Z,51.04
2019-05-07T18:14:08.277Z,51.38
2019-05-07T18:16:49.841Z,51.86
2019-05-07T18:19:19.554Z,51.98
2019-05-07T18:21:49.297Z,52.30
2019-05-07T18:24:18.981Z,52.38
2019-05-07T18:26:48.953Z,52.56
2019-05-07T18:29:18.665Z,52.81
2019-05-07T18:31:51.575Z,52.86
2019-05-07T18:34:21.553Z,53.26
2019-05-07T18:36:53.091Z,53.35
2019-05-07T18:39:23.145Z,53.51
2019-05-07T18:41:52.923Z,53.55
2019-05-07T18:44:23.934Z,53.74
2019-05-07T18:46:53.837Z,53.94
2019-05-07T18:49:23.768Z,53.95
2019-05-07T18:51:55.201Z,54.16
2019-05-07T18:54:30.891Z,54.22
2019-05-07T18:56:56.721Z,54.38
2019-05-07T18:59:26.967Z,54.43
2019-05-07T19:01:55.290Z,54.74
2019-05-07T19:04:23.599Z,54.87
2019-05-07T19:06:53.320Z,55.12
2019-05-07T19:09:23.187Z,55.00
2019-05-07T19:11:52.872Z,55.24
2019-05-07T19:14:22.923Z,55.43
2019-05-07T19:16:52.786Z,55.67
2019-05-07T19:19:22.710Z,55.75
2019-05-07T19:21:53.088Z,55.87
2019-05-07T19:24:26.248Z,56.07
2019-05-07T19:26:55.022Z,56.31
2019-05-07T19:29:24.796Z,56.61
2019-05-07T19:31:54.492Z,56.74
2019-05-07T19:34:24.209Z,57.00
2019-05-07T19:36:53.912Z,57.43
2019-05-07T19:39:24.739Z,57.83
2019-05-07T19:41:54.426Z,58.15
2019-05-07T19:44:25.158Z,58.33
2019-05-07T19:46:54.840Z,58.42
2019-05-07T19:49:24.609Z,58.46
2019-05-07T19:51:54.321Z,58.65
2019-05-07T19:54:23.991Z,58.71
2019-05-07T19:56:54.118Z,58.85
2019-05-07T19:59:23.790Z,59.08
2019-05-07T20:01:57.565Z,59.26
2019-05-07T20:04:27.310Z,59.39
2019-05-07T20:06:55.993Z,59.52
2019-05-07T20:09:28.836Z,59.78
2019-05-07T20:11:57.257Z,60.06
2019-05-07T20:14:25.555Z,60.34
2019-05-07T20:16:54.460Z,60.63
2019-05-07T20:19:23.099Z,60.63
2019-05-07T20:21:52.351Z,60.76
2019-05-07T20:24:21.925Z,60.88
2019-05-07T20:26:52.653Z,60.85
2019-05-07T20:29:22.901Z,61.08
2019-05-07T20:31:53.290Z,61.22
2019-05-07T20:34:22.853Z,61.41
2019-05-07T20:36:52.591Z,61.39
2019-05-07T20:39:23.335Z,61.58
2019-05-07T20:41:53.138Z,61.83
2019-05-07T20:44:23.086Z,61.96
2019-05-07T20:46:53.567Z,62.16
2019-05-07T20:49:23.546Z,62.19
2019-05-07T20:51:53.303Z,62.51
2019-05-07T20:54:39.431Z,62.57
2019-05-07T20:57:13.371Z,62.80
2019-05-07T20:59:43.011Z,63.36
2019-05-07T21:02:12.713Z,63.49
2019-05-07T21:04:42.597Z,63.59
2019-05-07T21:07:12.474Z,63.74
2019-05-07T21:09:42.454Z,63.75
2019-05-07T21:12:12.800Z,63.73
2019-05-07T21:14:42.998Z,63.75
2019-05-07T21:17:12.761Z,63.83
2019-05-07T21:19:42.955Z,63.87
2019-05-07T21:22:13.118Z,63.89
2019-05-07T21:24:42.847Z,64.05
2019-05-07T21:27:12.812Z,64.05
2019-05-07T21:29:42.519Z,64.30
2019-05-07T21:32:13.378Z,64.42
2019-05-07T21:34:43.470Z,64.44
2019-05-07T21:37:13.167Z,64.44
2019-05-07T21:39:43.027Z,64.45
2019-05-07T21:42:14.247Z,64.51
2019-05-07T21:44:44.174Z,64.59
2019-05-07T21:47:13.944Z,64.69
2019-05-07T21:49:43.640Z,64.81
2019-05-07T21:52:13.475Z,64.87
2019-05-07T21:54:53.200Z,65.02
2019-05-07T21:57:45.642Z,65.13
2019-05-07T22:00:41.067Z,65.98
2019-05-07T22:03:15.346Z,65.98
2019-05-07T22:05:45.022Z,65.75
2019-05-07T22:08:15.869Z,65.84
2019-05-07T22:10:45.617Z,65.93
2019-05-07T22:13:16.290Z,65.99
2019-05-07T22:15:45.967Z,66.18
2019-05-07T22:18:15.642Z,66.34
2019-05-07T22:20:45.420Z,66.42
2019-05-07T22:23:15.400Z,66.63
2019-05-07T22:25:45.089Z,67.02
2019-05-07T22:28:15.049Z,67.36
2019-05-07T22:30:55.577Z,67.57
2019-05-07T22:33:33.635Z,67.64
2019-05-07T22:36:03.381Z,67.70
2019-05-07T22:38:37.358Z,67.73
2019-05-07T22:41:08.662Z,67.64
2019-05-07T22:43:38.531Z,67.66
2019-05-07T22:46:08.570Z,67.61
2019-05-07T22:48:38.482Z,67.62
2019-05-07T22:51:08.169Z,67.83
2019-05-07T22:53:38.135Z,67.88
2019-05-07T22:56:08.142Z,68.12
2019-05-07T22:58:42.098Z,68.42
2019-05-07T23:01:13.173Z,68.49
2019-05-07T23:03:43.172Z,68.53
2019-05-07T23:06:13.114Z,68.41
2019-05-07T23:08:42.787Z,68.42
2019-05-07T23:11:12.588Z,68.46
2019-05-07T23:13:43.290Z,68.79
2019-05-07T23:16:13.029Z,68.79
2019-05-07T23:18:43.113Z,68.54
2019-05-07T23:21:12.966Z,68.67
2019-05-07T23:23:43.737Z,68.66
2019-05-07T23:26:14.759Z,68.75
2019-05-07T23:28:44.691Z,68.85
2019-05-07T23:31:15.386Z,69.02
2019-05-07T23:33:45.441Z,68.94
2019-05-07T23:36:15.173Z,69.13
2019-05-07T23:38:43.477Z,69.33
2019-05-07T23:41:47.155Z,69.49
2019-05-07T23:44:18.481Z,69.63
2019-05-07T23:46:48.883Z,69.74
2019-05-07T23:49:18.560Z,69.99
2019-05-07T23:51:48.239Z,70.09
2019-05-07T23:54:18.922Z,70.08
2019-05-07T23:57:04.476Z,70.37
2019-05-07T23:59:22.155Z,70.57
